Time;durP1;ratioP1;P1;durP2;ratioP2;P2;SDS_P1;SDS_P2;PMS_P1;PMS_P2;Temp;Humidity;BMP_temperature;BMP_pressure;BME280_temperature;BME280_humidity;BME280_pressure;Samples;Min_cycle;Max_cycle;Signal;HPM_P1;HPM_P2
2022/02/19 00:09:07;;;;;;;4.15;2.33;;;;;;;10.29;97.99;97581.80;713739;1177;114051;-76
2022/02/19 00:24:09;;;;;;;6.43;2.43;;;;;;;10.37;92.48;97597.36;713627;1177;115286;-77
2022/02/19 00:39:12;;;;;;;8.60;3.28;;;;;;;10.34;84.47;97584.63;713063;1175;113769;-75
2022/02/19 00:54:14;;;;;;;2.90;1.90;;;;;;;7.89;100.00;97666.23;712720;1175;114103;-75
2022/02/19 01:09:16;;;;;;;2.97;1.57;;;;;;;8.55;100.00;97691.51;712717;1177;114674;-77
2022/02/19 01:24:20;;;;;;;2.40;0.97;;;;;;;9.07;80.70;97679.09;712878;1175;113704;-76
2022/02/19 01:39:22;;;;;;;4.70;1.53;;;;;;;9.15;73.46;97688.61;713107;1174;113663;-77
2022/02/19 01:54:25;;;;;;;4.77;1.10;;;;;;;9.20;68.84;97711.57;712914;1177;114580;-76
2022/02/19 02:09:27;;;;;;;5.50;1.73;;;;;;;9.16;68.06;97711.96;712192;1175;113642;-75
2022/02/19 02:24:34;;;;;;;4.58;1.15;;;;;;;9.03;67.01;97735.39;712610;1175;115182;-76
2022/02/19 02:39:36;;;;;;;1.47;0.90;;;;;;;8.74;65.82;97736.33;712917;1175;114468;-76
2022/02/19 02:54:38;;;;;;;2.60;1.30;;;;;;;8.66;65.38;97771.22;712835;1175;114474;-75
2022/02/19 03:09:40;;;;;;;4.63;1.55;;;;;;;8.60;65.08;97785.81;712541;1176;114521;-75
2022/02/19 03:24:46;;;;;;;4.00;1.50;;;;;;;8.48;64.32;97792.52;712553;1177;113634;-74
2022/02/19 03:39:48;;;;;;;7.90;2.40;;;;;;;8.60;64.84;97798.08;713028;1175;113687;-75
2022/02/19 03:54:51;;;;;;;12.78;3.75;;;;;;;8.41;62.34;97799.45;713093;1177;113657;-74
2022/02/19 04:09:53;;;;;;;7.80;2.27;;;;;;;8.41;62.40;97813.30;712596;1177;114605;-75
2022/02/19 04:24:55;;;;;;;9.48;3.25;;;;;;;8.29;63.18;97818.17;712988;1175;113804;-75
2022/02/19 04:39:57;;;;;;;6.28;2.50;;;;;;;8.10;62.31;97822.16;711761;1170;114540;-75
2022/02/19 04:55:00;;;;;;;6.20;2.80;;;;;;;8.06;62.90;97813.03;712228;1176;114566;-76
2022/02/19 05:10:03;;;;;;;5.20;2.45;;;;;;;8.26;61.11;97812.50;712902;1176;114650;-75
2022/02/19 05:25:06;;;;;;;6.48;2.50;;;;;;;8.24;58.77;97811.88;713284;1177;114181;-75
2022/02/19 05:40:08;;;;;;;5.25;2.15;;;;;;;8.48;58.59;97805.58;713742;1176;113817;-75
2022/02/19 05:55:11;;;;;;;7.17;2.00;;;;;;;8.45;56.14;97834.66;713507;1177;114492;-74
2022/02/19 06:10:14;;;;;;;9.63;2.03;;;;;;;8.39;56.53;97849.23;713120;1174;113691;-73
2022/02/19 06:25:16;;;;;;;5.93;1.55;;;;;;;8.42;54.90;97814.11;713027;1177;114071;-75
2022/02/19 06:40:19;;;;;;;6.65;2.98;;;;;;;8.51;54.88;97820.88;713822;1177;113624;-76
2022/02/19 06:55:22;;;;;;;18.93;6.15;;;;;;;8.52;54.22;97845.23;713749;1174;114856;-74
2022/02/19 07:10:27;;;;;;;9.40;3.20;;;;;;;8.56;53.39;97849.09;713887;1176;115371;-74
2022/02/19 07:25:31;;;;;;;11.05;3.13;;;;;;;8.77;54.19;97793.45;713783;1174;114444;-74
2022/02/19 07:40:33;;;;;;;12.45;5.60;;;;;;;8.91;54.20;97870.24;713635;1176;115327;-77
2022/02/19 08:10:58;;;;;;;14.58;4.98;;;;;;;8.24;58.85;97908.52;714768;1174;114540;-75
2022/02/19 08:26:01;;;;;;;7.40;3.13;;;;;;;8.23;60.20;97905.08;715125;1175;114102;-75
2022/02/19 08:41:04;;;;;;;18.40;7.90;;;;;;;7.91;62.58;98000.98;713700;1177;114761;-74
2022/02/19 08:56:07;;;;;;;12.03;3.95;;;;;;;7.36;68.41;98025.44;713687;1177;114454;-74
2022/02/19 09:11:11;;;;;;;5.75;3.08;;;;;;;7.87;67.76;98070.20;714374;1175;115154;-75
2022/02/19 09:26:13;;;;;;;39.93;13.60;;;;;;;7.66;71.99;98123.80;714875;1175;113604;-79
2022/02/19 09:41:16;;;;;;;22.40;8.98;;;;;;;7.00;77.91;98177.91;716096;1174;113965;-79
2022/02/19 09:56:18;;;;;;;9.93;4.13;;;;;;;7.38;74.18;98138.23;719249;1177;113730;-79
2022/02/19 10:11:21;;;;;;;36.60;14.50;;;;;;;7.96;67.82;98181.44;714126;1176;114868;-80
2022/02/19 10:26:31;;;;;;;16.95;8.10;;;;;;;8.03;68.06;98246.85;716406;1176;114221;-81
2022/02/19 10:41:39;;;;;;;22.50;10.48;;;;;;;7.27;73.28;98308.94;716276;1177;114161;-81
2022/02/19 10:56:41;;;;;;;34.50;12.60;;;;;;;6.40;81.51;98358.70;714925;1176;114376;-80
2022/02/19 11:11:46;;;;;;;35.13;12.10;;;;;;;6.08;87.08;98423.45;714885;1174;115431;-79
2022/02/19 11:26:50;;;;;;;14.60;5.80;;;;;;;6.44;87.13;98443.38;716220;1174;115079;-73
2022/02/19 11:41:53;;;;;;;46.80;14.80;;;;;;;7.72;86.80;98437.30;713982;1167;114221;-78
2022/02/19 12:48:56;;;;;;;12.90;4.40;;;;;;;7.22;81.73;98650.26;716967;1174;114146;-79
2022/02/19 13:04:01;;;;;;;12.03;6.03;;;;;;;7.81;78.60;98645.17;719441;1174;115072;-79
2022/02/19 13:19:04;;;;;;;14.63;6.07;;;;;;;7.93;76.54;98730.10;715023;1177;115234;-76
2022/02/19 13:34:08;;;;;;;12.53;6.20;;;;;;;7.34;81.13;98769.05;714125;1175;113736;-74
2022/02/19 13:49:17;;;;;;;24.50;10.60;;;;;;;6.77;88.07;98798.02;714237;1174;113753;-74
2022/02/19 14:04:34;;;;;;;17.77;4.53;;;;;;;6.95;87.66;98865.83;713948;1176;115399;-73
2022/02/19 14:19:39;;;;;;;12.88;4.35;;;;;;;7.02;86.53;98916.44;714095;1173;114451;-73
2022/02/19 14:34:42;;;;;;;11.70;4.40;;;;;;;7.12;84.78;98963.31;714481;1174;114366;-75
2022/02/19 14:49:48;;;;;;;36.93;11.03;;;;;;;7.10;84.49;99005.20;714278;1174;114598;-75
2022/02/19 15:04:51;;;;;;;46.43;17.50;;;;;;;6.72;85.98;99073.91;714280;1174;115411;-75
2022/02/19 15:20:16;;;;;;;39.18;17.25;;;;;;;7.77;84.08;99098.95;714254;1174;114723;-75
2022/02/19 15:35:19;;;;;;;47.55;15.55;;;;;;;7.32;81.92;99138.82;714013;1174;115492;-75
2022/02/19 15:50:24;;;;;;;16.73;6.67;;;;;;;6.85;84.21;99180.50;714390;1174;114058;-75
2022/02/19 16:05:30;;;;;;;24.23;11.30;;;;;;;6.14;88.63;99221.43;714287;1177;116518;-75
2022/02/19 16:20:33;;;;;;;44.60;20.00;;;;;;;5.83;91.05;99266.50;714792;1174;114319;-74
2022/02/19 16:35:38;;;;;;;28.37;11.40;;;;;;;5.78;92.48;99302.50;714213;1174;114731;-76
2022/02/19 16:50:41;;;;;;;37.20;12.98;;;;;;;5.88;92.21;99336.38;714205;1174;115528;-75
2022/02/19 17:05:44;;;;;;;25.18;9.63;;;;;;;5.88;92.06;99382.42;713729;1177;114917;-80
2022/02/19 17:20:47;;;;;;;78.53;30.88;;;;;;;5.93;91.35;99429.73;714373;1167;115179;-79
2022/02/19 17:35:50;;;;;;;37.33;15.80;;;;;;;5.83;91.70;99459.13;714088;1174;115605;-78
2022/02/19 17:50:53;;;;;;;34.73;14.93;;;;;;;5.77;90.80;99492.63;714618;1174;114022;-76
2022/02/19 18:05:56;;;;;;;20.70;7.67;;;;;;;5.66;91.18;99501.27;714318;1174;114344;-76
2022/02/19 18:20:59;;;;;;;22.23;7.90;;;;;;;5.68;91.08;99533.22;714735;1175;115131;-75
2022/02/19 18:36:02;;;;;;;55.43;16.20;;;;;;;5.53;91.44;99552.64;713903;1175;113804;-75
2022/02/19 18:51:05;;;;;;;40.93;10.90;;;;;;;5.48;93.46;99579.84;714244;1174;115847;-75
2022/02/19 19:06:09;;;;;;;29.73;8.08;;;;;;;5.60;93.17;99598.88;714268;1175;114334;-74
2022/02/19 19:21:14;;;;;;;27.23;7.50;;;;;;;5.55;94.57;99608.81;714192;1176;113819;-75
2022/02/19 19:36:17;;;;;;;19.70;7.35;;;;;;;5.76;94.25;99631.52;714015;1175;113741;-74
2022/02/19 19:51:19;;;;;;;14.65;6.13;;;;;;;5.95;92.85;99638.70;714067;1177;114609;-75
2022/02/19 20:06:23;;;;;;;14.40;5.47;;;;;;;6.01;92.70;99661.69;713847;1175;113833;-74
2022/02/19 20:21:26;;;;;;;11.93;6.60;;;;;;;5.98;91.09;99673.17;714055;1177;114391;-75
2022/02/19 20:36:28;;;;;;;25.57;7.23;;;;;;;6.06;89.88;99659.55;714321;1174;114631;-74
2022/02/19 20:51:34;;;;;;;11.95;5.55;;;;;;;6.03;89.08;99665.01;714446;1176;113681;-75
2022/02/19 21:06:38;;;;;;;17.73;9.28;;;;;;;6.13;88.21;99686.75;713995;1176;113812;-75
2022/02/19 21:21:40;;;;;;;18.80;7.00;;;;;;;6.01;87.52;99689.52;713996;1175;115195;-75
2022/02/19 21:36:42;;;;;;;11.13;4.58;;;;;;;5.69;87.89;99709.25;713908;1175;114381;-76
2022/02/19 21:51:45;;;;;;;13.73;3.48;;;;;;;5.77;87.41;99747.70;713900;1175;114485;-76
2022/02/19 22:06:47;;;;;;;10.68;4.28;;;;;;;5.77;87.43;99753.73;713778;1177;115022;-75
2022/02/19 22:21:50;;;;;;;11.28;3.63;;;;;;;5.57;86.67;99749.20;713596;1175;114571;-75
2022/02/19 22:36:52;;;;;;;7.85;3.68;;;;;;;5.60;86.41;99751.59;719636;1176;114684;-74
2022/02/19 22:52:14;;;;;;;7.80;3.33;;;;;;;5.43;87.62;99753.67;713856;1177;113590;-74
2022/02/19 23:07:17;;;;;;;9.60;3.23;;;;;;;5.30;86.70;99734.73;714225;1177;113588;-74
2022/02/19 23:22:19;;;;;;;7.13;3.20;;;;;;;5.20;86.63;99721.60;713374;1174;115400;-75
2022/02/19 23:37:21;;;;;;;6.75;2.60;;;;;;;5.12;85.83;99708.31;713765;1176;114418;-75
2022/02/19 23:52:23;;;;;;;13.90;4.50;;;;;;;5.12;85.87;99708.31;713839;1174;114905;-75
